createdAt,value
2023-04-02T00:00:03.180Z,25.1300
2023-04-02T00:00:14.354Z,25.1400
2023-04-02T00:00:25.402Z,25.1400
2023-04-02T00:00:36.440Z,25.1300
2023-04-02T00:00:47.482Z,25.1300
2023-04-02T00:00:58.546Z,25.1300
2023-04-02T00:01:09.733Z,25.1300
2023-04-02T00:01:20.912Z,25.1300
2023-04-02T00:01:32.120Z,25.1200
2023-04-02T00:01:43.190Z,25.1200
2023-04-02T00:01:54.254Z,25.1200
2023-04-02T00:02:05.467Z,25.1200
2023-04-02T00:02:16.652Z,25.1200
2023-04-02T00:02:27.976Z,25.1200
2023-04-02T00:02:39.414Z,25.1200
2023-04-02T00:02:50.595Z,25.1200
2023-04-02T00:03:01.946Z,25.1200
2023-04-02T00:03:13.323Z,25.1200
2023-04-02T00:03:24.553Z,25.1100
2023-04-02T00:03:35.796Z,25.1200
2023-04-02T00:03:47.008Z,25.1200
2023-04-02T00:03:58.133Z,25.1300
2023-04-02T00:04:09.321Z,25.1300
2023-04-02T00:04:20.445Z,25.1300
2023-04-02T00:04:31.640Z,25.1300
2023-04-02T00:04:42.833Z,25.1300
2023-04-02T00:04:53.909Z,25.1400
2023-04-02T00:05:05.019Z,25.1400
2023-04-02T00:05:16.192Z,25.1400
2023-04-02T00:05:27.317Z,25.1500
2023-04-02T00:05:38.361Z,25.1500
2023-04-02T00:05:49.400Z,25.1400
2023-04-02T00:06:00.605Z,25.1400
2023-04-02T00:06:11.796Z,25.1500
2023-04-02T00:06:23.002Z,25.1400
2023-04-02T00:06:34.200Z,25.1400
2023-04-02T00:06:45.451Z,25.1400
2023-04-02T00:06:56.504Z,25.1400
2023-04-02T00:07:07.534Z,25.1400
2023-04-02T00:07:18.681Z,25.1400
2023-04-02T00:07:29.880Z,25.1500
2023-04-02T00:07:41.081Z,25.1500
2023-04-02T00:07:52.149Z,25.1500
2023-04-02T00:08:03.212Z,25.1500
2023-04-02T00:08:14.364Z,25.1500
2023-04-02T00:08:25.555Z,25.1500
2023-04-02T00:08:36.765Z,25.1400
2023-04-02T00:08:47.960Z,25.1400
2023-04-02T00:08:59.014Z,25.1400
2023-04-02T00:09:10.148Z,25.1400
2023-04-02T00:09:21.244Z,25.1300
2023-04-02T00:09:32.447Z,25.1400
2023-04-02T00:09:43.635Z,25.1400
2023-04-02T00:09:54.838Z,25.1400
2023-04-02T00:10:06.047Z,25.1400
2023-04-02T00:10:17.241Z,25.1400
2023-04-02T00:10:28.478Z,25.1400
2023-04-02T00:10:39.645Z,25.1400
2023-04-02T00:10:50.845Z,25.1400
2023-04-02T00:11:01.897Z,25.1500
2023-04-02T00:11:12.935Z,25.1500
2023-04-02T00:11:24.114Z,25.1500
2023-04-02T00:11:35.332Z,25.1500
2023-04-02T00:11:46.540Z,25.1500
2023-04-02T00:11:57.554Z,25.1500
2023-04-02T00:12:08.595Z,25.1400
2023-04-02T00:12:19.822Z,25.1400
2023-04-02T00:12:30.996Z,25.1400
2023-04-02T00:12:42.201Z,25.1400
2023-04-02T00:12:53.395Z,25.1400
2023-04-02T00:13:04.435Z,25.1400
2023-04-02T00:13:15.486Z,25.1300
2023-04-02T00:13:26.718Z,25.1400
2023-04-02T00:13:37.891Z,25.1400
2023-04-02T00:13:49.093Z,25.1400
2023-04-02T00:14:00.293Z,25.1400
2023-04-02T00:14:11.388Z,25.1400
2023-04-02T00:14:22.457Z,25.1300
2023-04-02T00:14:33.657Z,25.1400
2023-04-02T00:14:44.762Z,25.1400
2023-04-02T00:14:55.816Z,25.1400
2023-04-02T00:15:06.835Z,25.1400
2023-04-02T00:15:17.877Z,25.1400
2023-04-02T00:15:28.918Z,25.1400
2023-04-02T00:15:40.121Z,25.1400
2023-04-02T00:15:51.321Z,25.1500
2023-04-02T00:16:02.532Z,25.1500
2023-04-02T00:16:13.749Z,25.1500
2023-04-02T00:16:24.844Z,25.1500
2023-04-02T00:16:36.184Z,25.1500
2023-04-02T00:16:47.423Z,25.1500
2023-04-02T00:16:58.576Z,25.1400
2023-04-02T00:17:09.716Z,25.1400
2023-04-02T00:17:20.757Z,25.1400
2023-04-02T00:17:31.839Z,25.1400
2023-04-02T00:17:42.995Z,25.1400
2023-04-02T00:17:54.235Z,25.1400
2023-04-02T00:18:05.443Z,25.1400
2023-04-02T00:18:16.686Z,25.1400
2023-04-02T00:18:27.788Z,25.1400
2023-04-02T00:18:39.025Z,25.1400
2023-04-02T00:18:50.206Z,25.1400
2023-04-02T00:19:01.407Z,25.1400
2023-04-02T00:19:12.631Z,25.1300
2023-04-02T00:19:23.800Z,25.1300
2023-04-02T00:19:34.997Z,25.1300
2023-04-02T00:19:46.202Z,25.1300
2023-04-02T00:19:57.405Z,25.1300
2023-04-02T00:20:08.596Z,25.1400
2023-04-02T00:20:19.819Z,25.1400
2023-04-02T00:20:30.890Z,25.1400
2023-04-02T00:20:41.959Z,25.1400
2023-04-02T00:20:53.083Z,25.1400
2023-04-02T00:21:04.292Z,25.1400
2023-04-02T00:21:15.371Z,25.1400
2023-04-02T00:21:26.433Z,25.1500
2023-04-02T00:21:38.866Z,25.1400
2023-04-02T00:21:51.060Z,25.1400
2023-04-02T00:22:02.224Z,25.1300
2023-04-02T00:22:13.259Z,25.1400
2023-04-02T00:22:24.296Z,25.1500
2023-04-02T00:22:35.483Z,25.1500
2023-04-02T00:22:46.680Z,25.1500
2023-04-02T00:22:57.881Z,25.1500
2023-04-02T00:23:09.083Z,25.1500
2023-04-02T00:23:20.139Z,25.1500
2023-04-02T00:23:31.172Z,25.1500
2023-04-02T00:23:42.370Z,25.1500
2023-04-02T00:23:53.598Z,25.1500
2023-04-02T00:24:04.773Z,25.1500
2023-04-02T00:24:15.997Z,25.1500
2023-04-02T00:24:27.051Z,25.1500
2023-04-02T00:24:38.106Z,25.1500
2023-04-02T00:24:49.255Z,25.1600
2023-04-02T00:25:00.436Z,25.1600
2023-04-02T00:25:11.478Z,25.1600
2023-04-02T00:25:22.522Z,25.1600
2023-04-02T00:25:33.770Z,25.1600
2023-04-02T00:25:44.946Z,25.1600
2023-04-02T00:25:56.130Z,25.1600
2023-04-02T00:26:07.267Z,25.1600
2023-04-02T00:26:18.306Z,25.1500
2023-04-02T00:26:29.400Z,25.1500
2023-04-02T00:26:40.448Z,25.1500
2023-04-02T00:26:51.476Z,25.1500
2023-04-02T00:27:02.691Z,25.1500
2023-04-02T00:27:13.877Z,25.1500
2023-04-02T00:27:24.985Z,25.1400
2023-04-02T00:27:36.037Z,25.1400
2023-04-02T00:27:47.099Z,25.1500
2023-04-02T00:27:58.159Z,25.1500
2023-04-02T00:28:09.242Z,25.1500
2023-04-02T00:28:20.466Z,25.1600
2023-04-02T00:28:31.637Z,25.1600
2023-04-02T00:28:42.835Z,25.1600
2023-04-02T00:28:53.922Z,25.1600
2023-04-02T00:29:04.946Z,25.1500
2023-04-02T00:29:16.129Z,25.1500
2023-04-02T00:29:27.197Z,25.1500
2023-04-02T00:29:38.252Z,25.1500
2023-04-02T00:29:49.421Z,25.1500
2023-04-02T00:30:00.462Z,25.1500
2023-04-02T00:30:11.479Z,25.1500
2023-04-02T00:30:22.691Z,25.1500
2023-04-02T00:30:33.877Z,25.1500
2023-04-02T00:30:45.082Z,25.1500
2023-04-02T00:30:56.284Z,25.1400
2023-04-02T00:31:07.393Z,25.1500
2023-04-02T00:31:18.474Z,25.1400
2023-04-02T00:31:29.522Z,25.1500
2023-04-02T00:31:40.609Z,25.1500
2023-04-02T00:31:51.677Z,25.1500
2023-04-02T00:32:02.905Z,25.1500
2023-04-02T00:32:14.020Z,25.1500
2023-04-02T00:32:25.179Z,25.1400
2023-04-02T00:32:36.313Z,25.1500
2023-04-02T00:32:47.376Z,25.1500
2023-04-02T00:32:58.539Z,25.1500
2023-04-02T00:33:09.730Z,25.1500
2023-04-02T00:33:20.763Z,25.1500
2023-04-02T00:33:31.824Z,25.1600
2023-04-02T00:33:43.023Z,25.1600
2023-04-02T00:33:54.244Z,25.1600
2023-04-02T00:34:05.496Z,25.1600
2023-04-02T00:34:16.597Z,25.1600
2023-04-02T00:34:27.712Z,25.1600
2023-04-02T00:34:38.767Z,25.1600
2023-04-02T00:34:50.158Z,25.1600
2023-04-02T00:35:01.229Z,25.1600
2023-04-02T00:35:12.242Z,25.1600
2023-04-02T00:35:23.287Z,25.1600
2023-04-02T00:35:34.613Z,25.1600
2023-04-02T00:35:45.934Z,25.1600
2023-04-02T00:35:57.114Z,25.1500
2023-04-02T00:36:08.302Z,25.1500
2023-04-02T00:36:19.514Z,25.1600
2023-04-02T00:36:30.604Z,25.1600
2023-04-02T00:36:41.683Z,25.1500
2023-04-02T00:36:52.758Z,25.1500
2023-04-02T00:37:03.982Z,25.1600
2023-04-02T00:37:15.164Z,25.1600
2023-04-02T00:37:26.384Z,25.1600
2023-04-02T00:37:37.453Z,25.1600
2023-04-02T00:37:48.494Z,25.1600
2023-04-02T00:37:59.639Z,25.1600
2023-04-02T00:38:10.857Z,25.1600
2023-04-02T00:38:22.056Z,25.1600
2023-04-02T00:38:33.258Z,25.1600
2023-04-02T00:38:45.552Z,25.1600
2023-04-02T00:38:57.919Z,25.1600
2023-04-02T00:39:08.972Z,25.1500
2023-04-02T00:39:20.004Z,25.1500
2023-04-02T00:39:31.200Z,25.1500
2023-04-02T00:39:42.384Z,25.1600
2023-04-02T00:39:53.579Z,25.1600
2023-04-02T00:40:04.764Z,25.1600
2023-04-02T00:40:15.957Z,25.1600
2023-04-02T00:40:27.170Z,25.1600
2023-04-02T00:40:38.387Z,25.1700
2023-04-02T00:40:49.570Z,25.1700
2023-04-02T00:41:00.757Z,25.1700
2023-04-02T00:41:11.977Z,25.1700
2023-04-02T00:41:23.000Z,25.1700
2023-04-02T00:41:34.043Z,25.1600
2023-04-02T00:41:45.247Z,25.1700
2023-04-02T00:41:56.451Z,25.1700
2023-04-02T00:42:07.658Z,25.1700
2023-04-02T00:42:18.843Z,25.1700
2023-04-02T00:42:30.050Z,25.1600
2023-04-02T00:42:41.263Z,25.1600
2023-04-02T00:42:52.438Z,25.1500
2023-04-02T00:43:03.644Z,25.1500
2023-04-02T00:43:14.846Z,25.1500
2023-04-02T00:43:25.882Z,25.1500
2023-04-02T00:43:36.928Z,25.1500
2023-04-02T00:43:48.124Z,25.1500
2023-04-02T00:43:59.317Z,25.1500
2023-04-02T00:44:10.522Z,25.1500
2023-04-02T00:44:22.030Z,25.1500
2023-04-02T00:44:33.296Z,25.1500
2023-04-02T00:44:44.446Z,25.1500
2023-04-02T00:44:55.643Z,25.1500
2023-04-02T00:45:06.843Z,25.1500
2023-04-02T00:45:18.052Z,25.1500
2023-04-02T00:45:29.178Z,25.1500
2023-04-02T00:45:40.529Z,25.1500
2023-04-02T00:45:51.795Z,25.1500
2023-04-02T00:46:02.938Z,25.1500
2023-04-02T00:46:14.129Z,25.1400
2023-04-02T00:46:25.380Z,25.1400
2023-04-02T00:46:36.518Z,25.1400
2023-04-02T00:46:47.657Z,25.1500
2023-04-02T00:46:58.845Z,25.1500
2023-04-02T00:47:10.056Z,25.1500
2023-04-02T00:47:21.087Z,25.1500
2023-04-02T00:47:32.165Z,25.1500
2023-04-02T00:47:43.388Z,25.1500
2023-04-02T00:47:54.581Z,25.1500
2023-04-02T00:48:05.760Z,25.1500
2023-04-02T00:48:16.924Z,25.1500
2023-04-02T00:48:27.968Z,25.1600
2023-04-02T00:48:39.038Z,25.1600
2023-04-02T00:48:50.226Z,25.1700
2023-04-02T00:49:01.405Z,25.1700
2023-04-02T00:49:12.607Z,25.1600
2023-04-02T00:49:23.848Z,25.1600
2023-04-02T00:49:35.054Z,25.1600
2023-04-02T00:49:46.211Z,25.1600
2023-04-02T00:49:57.397Z,25.1600
2023-04-02T00:50:08.467Z,25.1600
2023-04-02T00:50:19.746Z,25.1600
2023-04-02T00:50:30.824Z,25.1600
2023-04-02T00:50:41.890Z,25.1600
2023-04-02T00:50:53.097Z,25.1500
2023-04-02T00:51:04.168Z,25.1500
2023-04-02T00:51:15.229Z,25.1500
2023-04-02T00:51:26.357Z,25.1500
2023-04-02T00:51:37.423Z,25.1500
2023-04-02T00:51:48.467Z,25.1500
2023-04-02T00:51:59.654Z,25.1500
2023-04-02T00:52:10.852Z,25.1500
2023-04-02T00:52:22.063Z,25.1500
2023-04-02T00:52:33.248Z,25.1500
2023-04-02T00:52:44.461Z,25.1500
2023-04-02T00:52:55.666Z,25.1600
2023-04-02T00:53:06.846Z,25.1600
2023-04-02T00:53:17.899Z,25.1600
2023-04-02T00:53:28.947Z,25.1600
2023-04-02T00:53:39.989Z,25.1600
2023-04-02T00:53:51.043Z,25.1600
2023-04-02T00:54:02.231Z,25.1600
2023-04-02T00:54:13.266Z,25.1600
2023-04-02T00:54:24.325Z,25.1600
2023-04-02T00:54:35.542Z,25.1600
2023-04-02T00:54:46.564Z,25.1700
2023-04-02T00:54:57.612Z,25.1700
2023-04-02T00:55:08.759Z,25.1700
2023-04-02T00:55:19.809Z,25.1700
2023-04-02T00:55:30.852Z,25.1700
2023-04-02T00:55:42.062Z,25.1700
2023-04-02T00:55:53.082Z,25.1700
2023-04-02T00:56:04.453Z,25.1700
2023-04-02T00:56:15.649Z,25.1700
2023-04-02T00:56:26.853Z,25.1600
2023-04-02T00:56:38.047Z,25.1600
2023-04-02T00:56:49.289Z,25.1600
2023-04-02T00:57:00.562Z,25.1600
2023-04-02T00:57:11.723Z,25.1600
2023-04-02T00:57:22.868Z,25.1600
2023-04-02T00:57:34.121Z,25.1600
2023-04-02T00:57:45.319Z,25.1600
2023-04-02T00:57:56.350Z,25.1600
2023-04-02T00:58:07.465Z,25.1700
2023-04-02T00:58:18.562Z,25.1700
2023-04-02T00:58:29.719Z,25.1800
2023-04-02T00:58:40.931Z,25.1800
2023-04-02T00:58:52.127Z,25.1800
2023-04-02T00:59:03.179Z,25.1800
2023-04-02T00:59:14.215Z,25.1800
2023-04-02T00:59:25.408Z,25.1800
2023-04-02T00:59:36.628Z,25.1800
2023-04-02T00:59:47.847Z,25.1800
2023-04-02T00:59:59.009Z,25.1800
2023-04-02T01:00:10.220Z,25.1800
2023-04-02T01:00:21.454Z,25.1800
2023-04-02T01:00:32.618Z,25.1800
2023-04-02T01:00:43.805Z,25.1800
2023-04-02T01:00:55.026Z,25.1800
2023-04-02T01:01:06.217Z,25.1700
2023-04-02T01:01:17.456Z,25.1700
2023-04-02T01:01:29.028Z,25.1700
2023-04-02T01:01:40.224Z,25.1600
2023-04-02T01:01:51.483Z,25.1600
2023-04-02T01:02:02.608Z,25.1700
2023-04-02T01:02:13.806Z,25.1700
2023-04-02T01:02:25.067Z,25.1700
2023-04-02T01:02:36.583Z,25.1700
2023-04-02T01:02:47.765Z,25.1700
2023-04-02T01:02:59.265Z,25.1800
2023-04-02T01:03:10.414Z,25.1700
2023-04-02T01:03:21.912Z,25.1700
2023-04-02T01:03:33.295Z,25.1700
2023-04-02T01:03:44.719Z,25.1700
2023-04-02T01:03:56.170Z,25.1800
2023-04-02T01:04:07.378Z,25.1800
2023-04-02T01:04:18.537Z,25.1800
2023-04-02T01:04:29.724Z,25.1800
2023-04-02T01:04:40.954Z,25.1800
2023-04-02T01:04:52.147Z,25.1800
2023-04-02T01:05:03.331Z,25.1800
2023-04-02T01:05:14.524Z,25.1800
2023-04-02T01:05:25.741Z,25.1800
2023-04-02T01:05:37.050Z,25.1900
2023-04-02T01:05:48.544Z,25.1900
2023-04-02T01:05:59.586Z,25.1900
2023-04-02T01:06:11.033Z,25.1900
2023-04-02T01:06:22.401Z,25.1900
2023-04-02T01:06:33.556Z,25.1800
2023-04-02T01:06:44.596Z,25.1800
2023-04-02T01:06:55.662Z,25.1800
2023-04-02T01:07:06.846Z,25.1800
2023-04-02T01:07:17.974Z,25.1900
2023-04-02T01:07:29.004Z,25.1900
2023-04-02T01:07:40.121Z,25.1900
2023-04-02T01:07:51.191Z,25.1800
2023-04-02T01:08:02.237Z,25.1800
2023-04-02T01:08:13.407Z,25.1800
2023-04-02T01:08:24.602Z,25.1800
2023-04-02T01:08:35.805Z,25.1800
2023-04-02T01:08:47.005Z,25.1800
2023-04-02T01:08:58.218Z,25.1800
2023-04-02T01:09:09.415Z,25.1900
2023-04-02T01:09:20.602Z,25.1900
2023-04-02T01:09:31.808Z,25.1900
2023-04-02T01:09:43.010Z,25.1900
2023-04-02T01:09:54.068Z,25.1900
2023-04-02T01:10:05.107Z,25.1900
2023-04-02T01:10:16.312Z,25.1900
2023-04-02T01:10:27.545Z,25.1900
2023-04-02T01:10:38.690Z,25.1900
2023-04-02T01:10:49.913Z,25.1900
2023-04-02T01:11:01.083Z,25.1900
2023-04-02T01:11:12.292Z,25.1900
2023-04-02T01:11:23.491Z,25.1900
2023-04-02T01:11:34.738Z,25.1800
2023-04-02T01:11:45.878Z,25.1800
2023-04-02T01:11:57.081Z,25.1900
2023-04-02T01:12:08.120Z,25.1900
2023-04-02T01:12:19.183Z,25.1900
2023-04-02T01:12:30.358Z,25.1900
2023-04-02T01:12:41.583Z,25.1900
2023-04-02T01:12:52.763Z,25.2000
2023-04-02T01:13:03.960Z,25.2000
2023-04-02T01:13:15.160Z,25.2000
2023-04-02T01:13:26.369Z,25.1900
2023-04-02T01:13:37.557Z,25.1900
2023-04-02T01:13:48.760Z,25.1900
2023-04-02T01:13:59.952Z,25.1800
2023-04-02T01:14:11.014Z,25.1800
2023-04-02T01:14:22.064Z,25.1800
2023-04-02T01:14:33.265Z,25.1800
2023-04-02T01:14:44.459Z,25.1800
2023-04-02T01:14:55.664Z,25.1800
2023-04-02T01:15:06.841Z,25.1800
2023-04-02T01:15:17.855Z,25.1800
2023-04-02T01:15:28.931Z,25.1800
2023-04-02T01:15:40.197Z,25.1800
2023-04-02T01:15:51.348Z,25.1800
2023-04-02T01:16:02.408Z,25.1800
2023-04-02T01:16:13.425Z,25.1800
2023-04-02T01:16:24.693Z,25.1800
2023-04-02T01:16:35.797Z,25.1800
2023-04-02T01:16:47.001Z,25.1800
2023-04-02T01:16:58.201Z,25.1800
2023-04-02T01:17:09.232Z,25.1900
2023-04-02T01:17:20.275Z,25.1900
2023-04-02T01:17:31.538Z,25.1900
2023-04-02T01:17:42.822Z,25.1900
2023-04-02T01:17:54.304Z,25.1800
2023-04-02T01:18:05.426Z,25.1800
2023-04-02T01:18:16.517Z,25.1800
2023-04-02T01:18:27.556Z,25.1800
2023-04-02T01:18:38.689Z,25.1800
2023-04-02T01:18:49.874Z,25.1800
2023-04-02T01:19:01.107Z,25.1800
2023-04-02T01:19:12.132Z,25.1800
2023-04-02T01:19:23.160Z,25.1800
2023-04-02T01:19:34.365Z,25.1800
2023-04-02T01:19:45.568Z,25.1800
2023-04-02T01:19:56.797Z,25.1800
2023-04-02T01:20:07.960Z,25.1700
2023-04-02T01:20:19.172Z,25.1700
2023-04-02T01:20:30.370Z,25.1600
2023-04-02T01:20:41.555Z,25.1600
2023-04-02T01:20:52.781Z,25.1700
2023-04-02T01:21:03.968Z,25.1600
2023-04-02T01:21:15.010Z,25.1600
2023-04-02T01:21:26.057Z,25.1700
2023-04-02T01:21:37.248Z,25.1700
2023-04-02T01:21:48.440Z,25.1800
2023-04-02T01:21:59.487Z,25.1800
2023-04-02T01:22:10.526Z,25.1800
2023-04-02T01:22:21.579Z,25.1800
2023-04-02T01:22:32.623Z,25.1800
2023-04-02T01:22:43.805Z,25.1800
2023-04-02T01:22:55.000Z,25.1800
2023-04-02T01:23:06.224Z,25.1900
2023-04-02T01:23:17.398Z,25.1900
2023-04-02T01:23:28.601Z,25.1900
2023-04-02T01:23:39.816Z,25.1800
2023-04-02T01:23:51.003Z,25.1800
2023-04-02T01:24:02.195Z,25.1800
2023-04-02T01:24:13.435Z,25.1800
2023-04-02T01:24:24.602Z,25.1800
2023-04-02T01:24:35.798Z,25.1800
2023-04-02T01:24:47.015Z,25.1800
2023-04-02T01:24:58.256Z,25.1800
2023-04-02T01:25:09.392Z,25.1800
2023-04-02T01:25:20.439Z,25.1800
2023-04-02T01:25:31.486Z,25.1700
2023-04-02T01:25:42.580Z,25.1700
2023-04-02T01:25:53.646Z,25.1800
2023-04-02T01:26:04.774Z,25.1800
2023-04-02T01:26:15.959Z,25.1800
2023-04-02T01:26:27.021Z,25.1800
2023-04-02T01:26:38.044Z,25.1700
2023-04-02T01:26:49.286Z,25.1700
2023-04-02T01:27:00.336Z,25.1700
2023-04-02T01:27:11.371Z,25.1700
2023-04-02T01:27:22.554Z,25.1700
2023-04-02T01:27:33.568Z,25.1700
2023-04-02T01:27:44.605Z,25.1700
2023-04-02T01:27:55.805Z,25.1600
2023-04-02T01:28:07.011Z,25.1600
2023-04-02T01:28:18.200Z,25.1600
2023-04-02T01:28:29.395Z,25.1600
2023-04-02T01:28:40.405Z,25.1500
2023-04-02T01:28:51.475Z,25.1600
2023-04-02T01:29:02.689Z,25.1600
2023-04-02T01:29:13.896Z,25.1600
2023-04-02T01:29:25.341Z,25.1600
2023-04-02T01:29:36.373Z,25.1600
2023-04-02T01:29:47.484Z,25.1500
2023-04-02T01:29:58.677Z,25.1500
2023-04-02T01:30:09.901Z,25.1500
2023-04-02T01:30:21.083Z,25.1500
2023-04-02T01:30:32.290Z,25.1500
2023-04-02T01:30:43.318Z,25.1500
2023-04-02T01:30:54.413Z,25.1500
2023-04-02T01:31:05.633Z,25.1500
2023-04-02T01:31:16.872Z,25.1600
2023-04-02T01:31:27.992Z,25.1600
2023-04-02T01:31:39.069Z,25.1600
2023-04-02T01:31:50.339Z,25.1600
2023-04-02T01:32:01.573Z,25.1600
2023-04-02T01:32:12.778Z,25.1600
2023-04-02T01:32:24.000Z,25.1600
2023-04-02T01:32:35.218Z,25.1600
2023-04-02T01:32:46.282Z,25.1600
2023-04-02T01:32:57.334Z,25.1600
2023-04-02T01:33:08.461Z,25.1600
2023-04-02T01:33:19.633Z,25.1600
2023-04-02T01:33:30.849Z,25.1600
2023-04-02T01:33:42.033Z,25.1600
2023-04-02T01:33:53.074Z,25.1500
2023-04-02T01:34:04.137Z,25.1600
2023-04-02T01:34:15.349Z,25.1600
2023-04-02T01:34:26.890Z,25.1600
2023-04-02T01:34:38.040Z,25.1600
2023-04-02T01:34:49.100Z,25.1600
2023-04-02T01:35:00.192Z,25.1600
2023-04-02T01:35:11.273Z,25.1600
2023-04-02T01:35:22.338Z,25.1600
2023-04-02T01:35:33.740Z,25.1700
2023-04-02T01:35:45.256Z,25.1700
2023-04-02T01:35:56.463Z,25.1700
2023-04-02T01:36:07.723Z,25.1700
2023-04-02T01:36:18.861Z,25.1700
2023-04-02T01:36:29.893Z,25.1700
2023-04-02T01:36:40.948Z,25.1800
2023-04-02T01:36:52.007Z,25.1700
2023-04-02T01:37:03.063Z,25.1800
2023-04-02T01:37:14.201Z,25.1700
2023-04-02T01:37:25.406Z,25.1700
2023-04-02T01:37:36.611Z,25.1700
2023-04-02T01:37:47.799Z,25.1700
2023-04-02T01:37:59.002Z,25.1700
2023-04-02T01:38:10.192Z,25.1600
2023-04-02T01:38:21.412Z,25.1600
2023-04-02T01:38:32.598Z,25.1700
2023-04-02T01:38:43.657Z,25.1600
2023-04-02T01:38:54.694Z,25.1600
2023-04-02T01:39:05.888Z,25.1600
2023-04-02T01:39:17.071Z,25.1600
2023-04-02T01:39:28.288Z,25.1600
2023-04-02T01:39:39.495Z,25.1700
2023-04-02T01:39:50.699Z,25.1700
2023-04-02T01:40:01.773Z,25.1700
2023-04-02T01:40:12.823Z,25.1700
2023-04-02T01:40:23.953Z,25.1700
2023-04-02T01:40:35.164Z,25.1800
2023-04-02T01:40:46.193Z,25.1700
2023-04-02T01:40:57.240Z,25.1800
2023-04-02T01:41:08.289Z,25.1800
2023-04-02T01:41:19.326Z,25.1700
2023-04-02T01:41:30.570Z,25.1700
2023-04-02T01:41:41.719Z,25.1600
2023-04-02T01:41:52.914Z,25.1600
2023-04-02T01:42:04.117Z,25.1600
2023-04-02T01:42:15.169Z,25.1600
2023-04-02T01:42:26.207Z,25.1500
2023-04-02T01:42:37.393Z,25.1600
2023-04-02T01:42:48.601Z,25.1600
2023-04-02T01:42:59.800Z,25.1600
2023-04-02T01:43:11.002Z,25.1600
2023-04-02T01:43:22.201Z,25.1600
2023-04-02T01:43:33.416Z,25.1600
2023-04-02T01:43:44.430Z,25.1600
2023-04-02T01:43:55.494Z,25.1600
2023-04-02T01:44:06.688Z,25.1600
2023-04-02T01:44:17.729Z,25.1600
2023-04-02T01:44:28.785Z,25.1700
2023-04-02T01:44:39.987Z,25.1800
2023-04-02T01:44:51.161Z,25.1800
2023-04-02T01:45:02.395Z,25.1800
2023-04-02T01:45:13.560Z,25.1800
2023-04-02T01:45:24.617Z,25.1800
2023-04-02T01:45:36.094Z,25.1800
2023-04-02T01:45:47.522Z,25.1800
2023-04-02T01:45:58.672Z,25.1700
2023-04-02T01:46:09.895Z,25.1700
2023-04-02T01:46:20.994Z,25.1700
2023-04-02T01:46:32.079Z,25.1700
2023-04-02T01:46:43.251Z,25.1800
2023-04-02T01:46:54.393Z,25.1800
2023-04-02T01:47:05.596Z,25.1800
2023-04-02T01:47:16.770Z,25.1800
2023-04-02T01:47:27.805Z,25.1800
2023-04-02T01:47:38.886Z,25.1700
2023-04-02T01:47:50.069Z,25.1700
2023-04-02T01:48:01.274Z,25.1700
2023-04-02T01:48:12.436Z,25.1700
2023-04-02T01:48:23.652Z,25.1600
2023-04-02T01:48:34.871Z,25.1600
2023-04-02T01:48:46.037Z,25.1600
2023-04-02T01:48:57.236Z,25.1600
2023-04-02T01:49:08.484Z,25.1600
2023-04-02T01:49:19.629Z,25.1600
2023-04-02T01:49:30.676Z,25.1600
2023-04-02T01:49:41.766Z,25.1600
2023-04-02T01:49:52.928Z,25.1600
2023-04-02T01:50:04.154Z,25.1600
2023-04-02T01:50:15.316Z,25.1700
2023-04-02T01:50:26.530Z,25.1600
2023-04-02T01:50:37.592Z,25.1600
2023-04-02T01:50:48.603Z,25.1500
2023-04-02T01:50:59.803Z,25.1500
2023-04-02T01:51:10.993Z,25.1500
2023-04-02T01:51:22.198Z,25.1500
2023-04-02T01:51:33.429Z,25.1500
2023-04-02T01:51:44.605Z,25.1500
2023-04-02T01:51:55.790Z,25.1500
2023-04-02T01:52:06.998Z,25.1500
2023-04-02T01:52:18.198Z,25.1600
2023-04-02T01:52:29.397Z,25.1600
2023-04-02T01:52:40.429Z,25.1600
2023-04-02T01:52:51.498Z,25.1500
2023-04-02T01:53:02.680Z,25.1500
2023-04-02T01:53:13.877Z,25.1500
2023-04-02T01:53:25.070Z,25.1600
2023-04-02T01:53:36.279Z,25.1500
2023-04-02T01:53:47.473Z,25.1600
2023-04-02T01:53:58.676Z,25.1600
2023-04-02T01:54:09.879Z,25.1600
2023-04-02T01:54:21.079Z,25.1600
2023-04-02T01:54:32.277Z,25.1600
2023-04-02T01:54:43.330Z,25.1600
2023-04-02T01:54:54.356Z,25.1600
2023-04-02T01:55:05.607Z,25.1500
2023-04-02T01:55:16.760Z,25.1500
2023-04-02T01:55:27.953Z,25.1600
2023-04-02T01:55:39.173Z,25.1600
2023-04-02T01:55:50.225Z,25.1600
2023-04-02T01:56:01.282Z,25.1600
2023-04-02T01:56:12.446Z,25.1600
2023-04-02T01:56:23.645Z,25.1600
2023-04-02T01:56:34.836Z,25.1600
2023-04-02T01:56:46.034Z,25.1600
2023-04-02T01:56:57.247Z,25.1600
2023-04-02T01:57:08.488Z,25.1600
2023-04-02T01:57:19.688Z,25.1600
2023-04-02T01:57:30.970Z,25.1700
2023-04-02T01:57:42.358Z,25.1700
2023-04-02T01:57:53.562Z,25.1700
2023-04-02T01:58:04.759Z,25.1800
2023-04-02T01:58:15.960Z,25.1800
2023-04-02T01:58:27.161Z,25.1800
2023-04-02T01:58:38.374Z,25.1800
2023-04-02T01:58:49.396Z,25.1800
2023-04-02T01:59:00.452Z,25.1800
2023-04-02T01:59:11.637Z,25.1800
2023-04-02T01:59:22.841Z,25.1800
2023-04-02T01:59:34.030Z,25.1800
2023-04-02T01:59:45.230Z,25.1800
2023-04-02T01:59:56.430Z,25.1800
2023-04-02T02:00:07.507Z,25.1800
2023-04-02T02:00:18.550Z,25.1800
2023-04-02T02:00:29.749Z,25.1800
2023-04-02T02:00:40.958Z,25.1800
2023-04-02T02:00:52.150Z,25.1800
2023-04-02T02:01:03.353Z,25.1800
2023-04-02T02:01:14.442Z,25.1800
2023-04-02T02:01:25.597Z,25.1800
2023-04-02T02:01:36.636Z,25.1800
2023-04-02T02:01:47.660Z,25.1800
2023-04-02T02:01:58.726Z,25.1800
2023-04-02T02:02:09.917Z,25.1800
2023-04-02T02:02:21.138Z,25.1800
2023-04-02T02:02:32.226Z,25.1800
2023-04-02T02:02:43.422Z,25.1800
2023-04-02T02:02:54.709Z,25.1800
2023-04-02T02:03:05.817Z,25.1800
2023-04-02T02:03:16.909Z,25.1900
2023-04-02T02:03:27.974Z,25.1900
2023-04-02T02:03:38.997Z,25.1900
2023-04-02T02:03:50.041Z,25.2000
2023-04-02T02:04:01.248Z,25.2000
2023-04-02T02:04:12.296Z,25.2000
2023-04-02T02:04:23.310Z,25.1900
2023-04-02T02:04:34.517Z,25.1900
2023-04-02T02:04:45.713Z,25.1800
2023-04-02T02:04:56.924Z,25.1800
2023-04-02T02:05:08.180Z,25.1800
2023-04-02T02:05:19.209Z,25.1800
2023-04-02T02:05:30.243Z,25.1800
2023-04-02T02:05:41.411Z,25.1800
2023-04-02T02:05:52.596Z,25.1800
2023-04-02T02:06:03.803Z,25.1800
2023-04-02T02:06:15.013Z,25.1800
2023-04-02T02:06:26.050Z,25.1800
2023-04-02T02:06:37.096Z,25.1800
2023-04-02T02:06:48.277Z,25.1800
2023-04-02T02:06:59.472Z,25.1800
2023-04-02T02:07:10.671Z,25.1700
2023-04-02T02:07:21.784Z,25.1700
2023-04-02T02:07:32.827Z,25.1700
2023-04-02T02:07:43.963Z,25.1700
2023-04-02T02:07:55.149Z,25.1700
2023-04-02T02:08:06.357Z,25.1700
2023-04-02T02:08:17.565Z,25.1700
2023-04-02T02:08:28.762Z,25.1700
2023-04-02T02:08:39.961Z,25.1700
2023-04-02T02:08:51.169Z,25.1800
2023-04-02T02:09:02.356Z,25.1800
2023-04-02T02:09:13.551Z,25.1800
2023-04-02T02:09:24.776Z,25.1800
2023-04-02T02:09:35.812Z,25.1800
2023-04-02T02:09:46.830Z,25.1800
2023-04-02T02:09:58.062Z,25.1800
2023-04-02T02:10:09.286Z,25.1800
2023-04-02T02:10:20.453Z,25.1800
2023-04-02T02:10:31.652Z,25.1800
2023-04-02T02:10:42.835Z,25.1800
2023-04-02T02:10:54.046Z,25.1800
2023-04-02T02:11:05.229Z,25.1800
2023-04-02T02:11:16.440Z,25.1900
2023-04-02T02:11:27.629Z,25.1900
2023-04-02T02:11:38.680Z,25.1900
2023-04-02T02:11:49.747Z,25.1900
2023-04-02T02:12:00.920Z,25.1900
2023-04-02T02:12:12.118Z,25.1900
2023-04-02T02:12:23.324Z,25.1900
2023-04-02T02:12:34.511Z,25.1900
2023-04-02T02:12:45.559Z,25.1900
2023-04-02T02:12:56.592Z,25.1800
2023-04-02T02:13:07.798Z,25.1800
2023-04-02T02:13:18.999Z,25.1800
2023-04-02T02:13:30.206Z,25.1800
2023-04-02T02:13:42.191Z,25.1700
2023-04-02T02:13:53.314Z,25.1700
2023-04-02T02:14:04.434Z,25.1600
2023-04-02T02:14:15.647Z,25.1600
2023-04-02T02:14:26.832Z,25.1600
2023-04-02T02:14:38.048Z,25.1600
2023-04-02T02:14:49.072Z,25.1600
2023-04-02T02:15:00.166Z,25.1600